Time;durP1;ratioP1;P1;durP2;ratioP2;P2;SDS_P1;SDS_P2;PMS_P1;PMS_P2;Temp;Humidity;BMP_temperature;BMP_pressure;BME280_temperature;BME280_humidity;BME280_pressure;Samples;Min_cycle;Max_cycle;Signal;HPM_P1;HPM_P2
2021/03/29 00:01:53;;;;;;;2.72;1.30;;;21.00;68.20;;;;;;5080089;28;20036;-38
2021/03/29 00:04:19;;;;;;;1.98;1.20;;;21.00;68.10;;;;;;5009906;28;20058;-38
2021/03/29 00:06:58;;;;;;;1.77;1.10;;;21.00;68.10;;;;;;5019526;28;20106;-37
2021/03/29 00:09:27;;;;;;;2.30;1.30;;;21.00;68.10;;;;;;5004789;28;20038;-38
2021/03/29 00:11:59;;;;;;;1.88;1.35;;;21.00;68.00;;;;;;5003702;28;20128;-38
2021/03/29 00:14:30;;;;;;;2.67;1.27;;;21.00;68.00;;;;;;5003769;28;20034;-38
2021/03/29 00:17:14;;;;;;;2.35;1.20;;;21.00;68.70;;;;;;5003875;28;20061;-38
2021/03/29 00:20:01;;;;;;;1.83;1.00;;;21.00;67.90;;;;;;5021964;28;20033;-38
2021/03/29 00:22:57;;;;;;;1.85;1.20;;;20.90;67.70;;;;;;5023789;28;20057;-38
2021/03/29 00:28:38;;;;;;;1.40;1.30;;;20.90;67.70;;;;;;5023948;28;20080;-38
2021/03/29 00:31:10;;;;;;;3.40;1.42;;;20.90;67.80;;;;;;5027266;28;20046;-38
2021/03/29 00:33:42;;;;;;;1.50;1.13;;;20.90;67.70;;;;;;5047501;28;20037;-38
2021/03/29 00:36:26;;;;;;;2.17;1.23;;;20.90;67.80;;;;;;5047216;28;20048;-38
2021/03/29 00:38:55;;;;;;;1.42;1.17;;;20.90;67.60;;;;;;5047057;28;20516;-38
2021/03/29 00:41:33;;;;;;;1.73;1.15;;;20.80;67.70;;;;;;5102465;28;20068;-38
2021/03/29 00:43:59;;;;;;;;;;;20.80;67.60;;;;;;5127456;28;20026;-38
2021/03/29 00:46:25;;;;;;;1.70;1.20;;;20.80;67.50;;;;;;5129052;27;19999;-38
2021/03/29 00:48:58;;;;;;;1.20;1.08;;;20.80;67.70;;;;;;5091454;28;20023;-38
2021/03/29 00:51:29;;;;;;;1.58;1.05;;;20.80;67.80;;;;;;5122488;27;20048;-39
2021/03/29 00:53:59;;;;;;;1.65;1.05;;;20.80;67.50;;;;;;5144882;27;20033;-39
2021/03/29 00:56:38;;;;;;;1.98;1.30;;;20.70;67.50;;;;;;5146080;27;20098;-38
2021/03/29 00:59:05;;;;;;;1.42;0.93;;;20.80;67.50;;;;;;5114428;27;20042;-38
2021/03/29 01:01:37;;;;;;;1.73;1.20;;;20.70;67.40;;;;;;5106249;28;20019;-38
2021/03/29 01:04:06;;;;;;;1.27;1.13;;;20.70;67.50;;;;;;5126731;28;20032;-38
2021/03/29 01:06:36;;;;;;;2.22;1.15;;;20.70;67.40;;;;;;5126297;28;20043;-38
2021/03/29 01:09:08;;;;;;;1.23;1.10;;;20.70;67.30;;;;;;5108346;28;20038;-39
2021/03/29 01:11:45;;;;;;;2.25;1.40;;;20.70;67.40;;;;;;5126066;28;20400;-38
2021/03/29 01:14:25;;;;;;;1.10;1.00;;;20.70;67.40;;;;;;5108484;28;20035;-38
2021/03/29 01:16:56;;;;;;;1.10;0.90;;;20.70;67.40;;;;;;5108078;28;20034;-38
2021/03/29 01:19:51;;;;;;;1.10;1.00;;;20.70;67.30;;;;;;5137248;27;20015;-38
2021/03/29 01:22:19;;;;;;;1.55;1.00;;;20.70;67.30;;;;;;5115078;28;20040;-38
2021/03/29 01:25:15;;;;;;;1.85;1.10;;;20.70;67.20;;;;;;5108018;28;20042;-38
2021/03/29 01:27:43;;;;;;;2.28;1.17;;;20.60;67.10;;;;;;5107874;28;20127;-38
2021/03/29 01:30:10;;;;;;;1.25;1.10;;;20.60;67.20;;;;;;5090412;28;20554;-40
2021/03/29 01:32:37;;;;;;;1.40;1.20;;;20.60;67.10;;;;;;5128805;27;20032;-38
2021/03/29 01:35:13;;;;;;;1.20;1.10;;;20.60;67.20;;;;;;5125912;28;20057;-38
2021/03/29 01:37:40;;;;;;;1.73;1.17;;;20.60;67.40;;;;;;5126097;28;20023;-38
2021/03/29 01:40:07;;;;;;;1.20;1.10;;;20.60;67.30;;;;;;5125738;28;20035;-38
2021/03/29 01:42:33;;;;;;;1.23;1.00;;;20.50;67.10;;;;;;5125639;28;20059;-38
2021/03/29 01:44:59;;;;;;;2.00;1.30;;;20.50;67.30;;;;;;5107418;28;20039;-38
2021/03/29 01:47:25;;;;;;;1.00;1.00;;;20.50;67.30;;;;;;5107350;28;20110;-38
2021/03/29 01:49:51;;;;;;;2.85;1.00;;;20.50;67.30;;;;;;5088694;27;20421;-38
2021/03/29 01:52:18;;;;;;;1.20;0.85;;;20.50;67.00;;;;;;5141739;27;20050;-38
2021/03/29 01:54:44;;;;;;;1.10;1.00;;;20.50;67.20;;;;;;5107179;28;20031;-38
2021/03/29 01:57:10;;;;;;;3.03;1.13;;;20.40;66.90;;;;;;5107244;28;20106;-38
2021/03/29 01:59:37;;;;;;;1.08;0.90;;;20.40;67.00;;;;;;5107230;28;20036;-38
2021/03/29 02:02:04;;;;;;;1.10;1.00;;;20.40;66.90;;;;;;5115312;28;20034;-38
2021/03/29 02:04:31;;;;;;;1.42;1.20;;;20.40;67.10;;;;;;5087160;28;20036;-38
2021/03/29 02:06:58;;;;;;;1.25;1.00;;;20.40;67.10;;;;;;5086622;28;20086;-39
2021/03/29 02:09:24;;;;;;;1.83;1.17;;;20.40;66.90;;;;;;5105014;28;20485;-38
2021/03/29 02:11:50;;;;;;;1.00;0.90;;;20.30;67.10;;;;;;5086228;28;20036;-38
2021/03/29 02:14:17;;;;;;;1.23;1.10;;;20.30;67.00;;;;;;5104746;28;20096;-38
2021/03/29 02:16:43;;;;;;;1.80;1.00;;;20.30;66.90;;;;;;5086594;28;20016;-41
2021/03/29 02:19:09;;;;;;;1.98;1.15;;;20.30;67.20;;;;;;5095422;28;20032;-39
2021/03/29 02:21:38;;;;;;;2.35;1.10;;;20.30;66.90;;;;;;5106424;28;20500;-38
2021/03/29 02:24:05;;;;;;;1.55;1.10;;;20.30;66.90;;;;;;5113216;28;20122;-38
2021/03/29 02:26:32;;;;;;;0.80;0.80;;;20.30;67.00;;;;;;5106671;28;20031;-39
2021/03/29 02:28:58;;;;;;;1.20;1.10;;;20.30;66.90;;;;;;5106533;28;20048;-39
2021/03/29 02:31:25;;;;;;;1.50;1.08;;;20.20;66.90;;;;;;5106377;28;20110;-38
2021/03/29 02:33:52;;;;;;;1.10;1.00;;;20.20;67.00;;;;;;5124925;28;20035;-38
2021/03/29 02:36:19;;;;;;;2.45;1.10;;;20.20;67.00;;;;;;5108181;27;20058;-38
2021/03/29 02:38:46;;;;;;;1.20;1.10;;;20.10;67.10;;;;;;5124998;28;20092;-38
2021/03/29 02:41:12;;;;;;;1.10;1.00;;;20.10;66.90;;;;;;5105546;28;20027;-38
2021/03/29 02:43:38;;;;;;;1.17;1.08;;;20.10;67.00;;;;;;5124351;28;20020;-38
2021/03/29 02:46:06;;;;;;;1.05;0.95;;;20.10;66.90;;;;;;5106193;28;20039;-38
2021/03/29 02:48:42;;;;;;;2.28;1.08;;;20.10;67.00;;;;;;5128450;27;20020;-39
2021/03/29 02:51:12;;;;;;;1.25;0.95;;;20.10;66.90;;;;;;5145037;27;20124;-38
2021/03/29 02:53:39;;;;;;;1.10;1.00;;;20.10;66.90;;;;;;5129112;27;20027;-39
2021/03/29 02:56:12;;;;;;;0.93;0.93;;;20.00;66.80;;;;;;5106268;28;20020;-38
2021/03/29 02:58:39;;;;;;;1.75;1.13;;;20.00;67.00;;;;;;5105826;28;20043;-38
2021/03/29 03:01:08;;;;;;;1.38;1.10;;;20.10;66.80;;;;;;5104217;28;20019;-38
2021/03/29 03:03:38;;;;;;;2.15;1.08;;;20.00;66.70;;;;;;5119262;27;20027;-38
2021/03/29 03:06:04;;;;;;;1.02;0.93;;;20.00;66.80;;;;;;5109796;27;20045;-38
2021/03/29 03:08:36;;;;;;;0.87;0.87;;;20.00;66.70;;;;;;5144697;27;20043;-39
2021/03/29 03:11:03;;;;;;;1.90;1.00;;;20.00;66.70;;;;;;5120731;28;20023;-38
2021/03/29 03:13:29;;;;;;;0.90;0.77;;;19.90;66.70;;;;;;5123612;28;20020;-38
2021/03/29 03:15:56;;;;;;;1.25;1.00;;;19.90;66.80;;;;;;5124147;28;20034;-38
2021/03/29 03:18:22;;;;;;;1.17;1.00;;;19.90;66.80;;;;;;5123849;28;20082;-38
2021/03/29 03:20:48;;;;;;;2.60;1.25;;;19.90;66.80;;;;;;5123950;28;20055;-38
2021/03/29 03:23:17;;;;;;;1.15;1.05;;;19.90;66.90;;;;;;5117337;27;20051;-38
2021/03/29 03:25:48;;;;;;;1.23;1.13;;;19.90;66.70;;;;;;5126050;27;20030;-38
2021/03/29 03:28:17;;;;;;;1.10;0.98;;;19.80;66.70;;;;;;5144446;27;20034;-38
2021/03/29 03:30:45;;;;;;;1.20;1.00;;;19.80;66.70;;;;;;5144455;27;20037;-39
2021/03/29 03:33:12;;;;;;;1.15;1.00;;;19.80;66.70;;;;;;5124255;27;20028;-38
2021/03/29 03:35:38;;;;;;;1.73;1.23;;;19.80;66.60;;;;;;5123699;28;20023;-38
2021/03/29 03:38:16;;;;;;;2.78;1.20;;;19.80;66.60;;;;;;5137531;27;20042;-38
2021/03/29 03:40:43;;;;;;;;;;;19.80;66.60;;;;;;5126163;27;20027;-38
2021/03/29 03:43:10;;;;;;;1.10;1.00;;;19.80;66.60;;;;;;5125071;27;19907;-38
2021/03/29 03:45:47;;;;;;;1.27;1.00;;;19.70;66.70;;;;;;5144040;27;20110;-38
2021/03/29 03:48:14;;;;;;;1.40;1.30;;;19.70;66.60;;;;;;5124475;27;20031;-38
2021/03/29 03:50:46;;;;;;;0.90;0.90;;;19.70;66.60;;;;;;5123266;28;20135;-38
2021/03/29 03:53:12;;;;;;;2.38;1.05;;;19.70;66.50;;;;;;5122878;28;20039;-39
2021/03/29 03:55:38;;;;;;;1.30;1.17;;;19.60;66.50;;;;;;5104972;28;20087;-38
2021/03/29 03:58:04;;;;;;;1.23;1.10;;;19.60;66.50;;;;;;5123321;28;20027;-38
2021/03/29 04:00:31;;;;;;;1.10;0.98;;;19.60;66.40;;;;;;5105054;28;20020;-38
2021/03/29 04:02:57;;;;;;;1.40;1.08;;;19.60;66.50;;;;;;5114714;28;20023;-39
2021/03/29 04:05:23;;;;;;;2.22;1.00;;;19.60;66.60;;;;;;5123220;28;20050;-38
2021/03/29 04:07:51;;;;;;;2.15;0.98;;;19.60;67.10;;;;;;5122974;28;20055;-39
2021/03/29 04:12:45;;;;;;;1.40;1.05;;;19.60;66.40;;;;;;5123346;28;20051;-38
2021/03/29 04:15:12;;;;;;;0.90;0.90;;;19.60;66.50;;;;;;5122934;28;20019;-38
2021/03/29 04:17:38;;;;;;;1.10;1.00;;;19.50;66.50;;;;;;5123100;28;20052;-38
2021/03/29 04:20:06;;;;;;;0.80;0.80;;;19.50;66.40;;;;;;5105101;28;20032;-38
2021/03/29 04:22:32;;;;;;;;;;;19.50;66.40;;;;;;5117363;28;20039;-38
2021/03/29 04:24:58;;;;;;;1.15;1.05;;;19.50;66.20;;;;;;5102306;28;19904;-41
2021/03/29 04:27:24;;;;;;;1.02;0.85;;;19.50;66.40;;;;;;5118357;28;20021;-38
2021/03/29 04:29:50;;;;;;;1.08;0.98;;;19.40;66.40;;;;;;5102560;28;20052;-38
2021/03/29 04:32:16;;;;;;;1.55;1.33;;;19.40;66.30;;;;;;5114716;28;20035;-38
2021/03/29 04:34:42;;;;;;;1.20;1.10;;;19.40;66.20;;;;;;5122787;28;20392;-38
2021/03/29 04:37:08;;;;;;;1.30;1.20;;;19.40;66.20;;;;;;5104730;28;20028;-38
2021/03/29 04:39:35;;;;;;;1.00;0.90;;;19.40;66.30;;;;;;5123173;28;20096;-39
2021/03/29 04:42:01;;;;;;;1.27;1.10;;;19.40;66.20;;;;;;5122685;28;20032;-38
2021/03/29 04:44:27;;;;;;;1.23;1.13;;;19.30;66.20;;;;;;5122543;28;20024;-38
2021/03/29 04:46:53;;;;;;;1.10;1.00;;;19.30;66.10;;;;;;5122863;28;20494;-38
2021/03/29 04:49:19;;;;;;;1.20;1.10;;;19.30;66.10;;;;;;5122837;28;20028;-39
2021/03/29 04:51:45;;;;;;;1.40;1.30;;;19.30;66.10;;;;;;5122749;28;20118;-38
2021/03/29 04:54:12;;;;;;;1.30;1.05;;;19.30;66.10;;;;;;5122498;28;20030;-38
2021/03/29 04:56:38;;;;;;;1.17;1.08;;;19.30;66.10;;;;;;5122560;28;20023;-39
2021/03/29 04:59:04;;;;;;;1.25;1.15;;;19.20;65.90;;;;;;5126523;28;20019;-38
2021/03/29 05:01:30;;;;;;;0.98;0.93;;;19.30;66.80;;;;;;5127894;28;20058;-39
2021/03/29 05:03:56;;;;;;;1.10;1.00;;;19.30;66.60;;;;;;5109708;28;20027;-38
2021/03/29 05:06:22;;;;;;;1.20;1.10;;;19.20;65.90;;;;;;5126298;28;20020;-47
2021/03/29 05:08:48;;;;;;;1.13;0.98;;;19.20;65.90;;;;;;5126491;28;20042;-39
2021/03/29 05:11:15;;;;;;;1.30;1.20;;;19.20;65.90;;;;;;5126367;28;20047;-38
2021/03/29 05:13:41;;;;;;;1.10;1.00;;;19.10;65.90;;;;;;5125940;27;20030;-38
2021/03/29 05:16:07;;;;;;;1.20;1.10;;;19.10;65.80;;;;;;5126298;28;20036;-38
2021/03/29 05:18:33;;;;;;;1.17;1.08;;;19.10;65.80;;;;;;5126343;28;20030;-38
2021/03/29 05:20:59;;;;;;;1.13;1.02;;;19.10;65.80;;;;;;5107702;28;20020;-38
2021/03/29 05:23:26;;;;;;;1.30;1.10;;;19.10;65.80;;;;;;5112502;28;20079;-38
2021/03/29 05:25:52;;;;;;;1.10;1.00;;;19.10;65.90;;;;;;5105629;28;20013;-38
2021/03/29 05:28:19;;;;;;;0.95;0.90;;;19.00;65.60;;;;;;5105563;28;20032;-38
2021/03/29 05:30:45;;;;;;;0.90;0.90;;;19.10;65.70;;;;;;5105386;28;20043;-38
2021/03/29 05:33:12;;;;;;;1.17;1.03;;;19.00;65.70;;;;;;5122660;27;20034;-38
2021/03/29 05:35:38;;;;;;;1.17;1.05;;;19.00;65.80;;;;;;5146055;27;20027;-38
2021/03/29 05:38:04;;;;;;;1.00;0.90;;;18.90;65.80;;;;;;5146600;27;20038;-39
2021/03/29 05:40:30;;;;;;;2.08;1.02;;;18.90;65.90;;;;;;5146470;27;20026;-39
2021/03/29 05:42:56;;;;;;;1.05;1.00;;;18.90;65.70;;;;;;5143525;27;20034;-38
2021/03/29 05:45:23;;;;;;;1.25;1.10;;;18.90;65.80;;;;;;5127483;27;20012;-39
2021/03/29 05:47:50;;;;;;;1.08;0.90;;;18.90;65.70;;;;;;5146262;27;20015;-39
2021/03/29 05:50:16;;;;;;;1.30;1.20;;;18.90;65.70;;;;;;5146125;27;20104;-39
2021/03/29 05:52:43;;;;;;;1.30;1.20;;;18.90;65.50;;;;;;5138418;27;20032;-38
2021/03/29 05:55:15;;;;;;;2.67;0.73;;;18.90;65.60;;;;;;5107173;28;20032;-38
2021/03/29 06:00:42;;;;;;;0.85;0.80;;;18.80;65.60;;;;;;5125414;28;20024;-38
2021/03/29 06:03:39;;;;;;;1.00;0.90;;;18.80;65.60;;;;;;5136512;27;20114;-38
2021/03/29 06:06:19;;;;;;;0.85;0.82;;;18.80;65.50;;;;;;5076700;28;20063;-38
2021/03/29 06:08:51;;;;;;;0.98;0.90;;;18.70;65.50;;;;;;5125177;28;20051;-38
2021/03/29 06:11:24;;;;;;;2.10;1.00;;;18.70;65.70;;;;;;5106715;28;20052;-38
2021/03/29 06:14:16;;;;;;;1.23;1.00;;;18.70;65.70;;;;;;5125268;28;20024;-38
2021/03/29 06:17:14;;;;;;;0.80;0.80;;;18.70;65.60;;;;;;5124758;28;20034;-38
2021/03/29 06:20:00;;;;;;;0.93;0.93;;;18.70;65.60;;;;;;5105768;28;20032;-38
2021/03/29 06:22:37;;;;;;;1.23;1.00;;;18.60;65.70;;;;;;5107950;28;20118;-39
2021/03/29 06:25:17;;;;;;;1.00;1.00;;;18.60;65.60;;;;;;5105778;28;20057;-38
2021/03/29 06:27:45;;;;;;;1.65;1.00;;;18.60;65.70;;;;;;5124874;28;20038;-39
2021/03/29 06:30:19;;;;;;;1.27;0.95;;;18.60;65.70;;;;;;5124806;28;20035;-38
2021/03/29 06:32:56;;;;;;;1.10;0.82;;;18.60;65.70;;;;;;5129538;27;20113;-38
2021/03/29 06:35:27;;;;;;;1.55;0.88;;;18.50;65.40;;;;;;5144888;27;20034;-39
2021/03/29 06:38:10;;;;;;;0.90;0.85;;;18.50;65.50;;;;;;5145164;27;20558;-39
2021/03/29 06:40:37;;;;;;;0.80;0.80;;;18.50;65.60;;;;;;5128103;27;20096;-45
2021/03/29 06:43:20;;;;;;;1.58;1.00;;;18.50;65.50;;;;;;5145117;27;20031;-38
2021/03/29 06:45:47;;;;;;;0.80;0.77;;;18.50;65.50;;;;;;5131497;27;20019;-38
2021/03/29 06:48:23;;;;;;;0.80;0.80;;;18.40;65.50;;;;;;5124500;28;20020;-38
2021/03/29 06:51:17;;;;;;;1.00;0.80;;;18.40;65.40;;;;;;5124566;28;20456;-39
2021/03/29 06:53:44;;;;;;;1.23;0.90;;;18.40;65.50;;;;;;5112625;27;20106;-38
2021/03/29 06:56:20;;;;;;;1.08;0.90;;;18.40;65.70;;;;;;5124139;28;20052;-38
2021/03/29 06:58:46;;;;;;;1.00;0.82;;;18.40;65.60;;;;;;5124116;28;20087;-38
2021/03/29 07:01:25;;;;;;;0.73;0.73;;;18.40;65.50;;;;;;5108869;27;20090;-38
2021/03/29 07:03:53;;;;;;;0.95;0.73;;;18.40;65.50;;;;;;5130396;27;20024;-38
2021/03/29 07:06:22;;;;;;;;;;;18.40;65.40;;;;;;5124139;28;20028;-38
2021/03/29 07:08:48;;;;;;;0.80;0.73;;;18.30;65.50;;;;;;5105608;28;19959;-38
2021/03/29 07:11:18;;;;;;;1.15;0.88;;;18.30;65.60;;;;;;5124055;28;20039;-38
2021/03/29 07:13:46;;;;;;;0.80;0.80;;;18.20;65.60;;;;;;5106069;28;20508;-38
2021/03/29 07:16:13;;;;;;;1.02;0.70;;;18.20;65.60;;;;;;5123572;28;20062;-38
2021/03/29 07:18:42;;;;;;;1.00;0.88;;;18.20;65.50;;;;;;5123923;28;20042;-39
2021/03/29 07:21:10;;;;;;;0.70;0.70;;;18.20;65.50;;;;;;5123572;28;20028;-38
2021/03/29 07:23:36;;;;;;;;;;;18.20;65.50;;;;;;5124041;28;20028;-38
2021/03/29 07:26:02;;;;;;;0.73;0.65;;;18.10;65.40;;;;;;5133371;27;19930;-38
2021/03/29 07:28:29;;;;;;;0.93;0.83;;;18.10;65.50;;;;;;5104861;28;20027;-38
2021/03/29 07:31:00;;;;;;;0.85;0.82;;;18.10;65.60;;;;;;5105228;28;20112;-39
2021/03/29 07:33:46;;;;;;;0.63;0.63;;;18.10;65.50;;;;;;5134303;27;20023;-38
2021/03/29 07:36:12;;;;;;;0.90;0.80;;;18.10;65.60;;;;;;5128250;27;20023;-38
2021/03/29 07:39:05;;;;;;;0.75;0.75;;;18.10;65.70;;;;;;5125882;27;20109;-39
2021/03/29 07:41:31;;;;;;;1.05;0.77;;;18.10;65.60;;;;;;5140271;27;20035;-38
2021/03/29 07:44:13;;;;;;;0.70;0.70;;;18.00;65.60;;;;;;5142065;27;20061;-39
2021/03/29 07:46:42;;;;;;;1.17;0.75;;;18.00;65.70;;;;;;5143670;27;20020;-38
2021/03/29 07:49:43;;;;;;;0.95;0.85;;;18.00;65.60;;;;;;5143761;27;20109;-38
2021/03/29 07:52:29;;;;;;;1.00;0.80;;;18.00;65.60;;;;;;5140940;27;20088;-38
2021/03/29 07:54:55;;;;;;;1.13;0.68;;;18.00;65.70;;;;;;5123131;28;20030;-39
2021/03/29 07:57:43;;;;;;;0.80;0.80;;;17.90;65.60;;;;;;5123103;28;20110;-38
2021/03/29 08:00:30;;;;;;;0.70;0.70;;;17.90;65.30;;;;;;5123312;28;20125;-39
2021/03/29 08:03:12;;;;;;;1.15;0.75;;;17.90;65.50;;;;;;5123317;27;20050;-38
2021/03/29 08:05:45;;;;;;;0.70;0.60;;;17.90;65.50;;;;;;5123275;28;20092;-39
2021/03/29 08:08:37;;;;;;;0.65;0.57;;;17.90;65.70;;;;;;5122673;28;20070;-39
2021/03/29 08:11:12;;;;;;;1.00;0.73;;;17.80;65.60;;;;;;5123015;28;20047;-38
2021/03/29 08:13:42;;;;;;;0.95;0.80;;;17.80;65.70;;;;;;5114658;28;20024;-38
2021/03/29 08:16:12;;;;;;;0.70;0.70;;;17.80;65.70;;;;;;5122986;28;20024;-38
2021/03/29 08:19:29;;;;;;;1.23;0.80;;;17.80;65.60;;;;;;5123061;28;20046;-38
2021/03/29 08:22:05;;;;;;;1.23;0.98;;;17.80;65.60;;;;;;5103402;28;20060;-38
2021/03/29 08:24:43;;;;;;;0.73;0.73;;;17.70;65.80;;;;;;5123129;28;20058;-39
2021/03/29 08:27:17;;;;;;;1.67;0.80;;;17.70;65.70;;;;;;5122858;28;20046;-38
2021/03/29 08:29:44;;;;;;;0.70;0.70;;;17.70;65.90;;;;;;5122931;28;20031;-38
2021/03/29 08:32:32;;;;;;;1.15;0.80;;;17.70;65.80;;;;;;5111918;28;20046;-39
2021/03/29 08:35:06;;;;;;;0.60;0.60;;;17.70;65.70;;;;;;5087117;28;20051;-38
2021/03/29 08:37:49;;;;;;;1.35;0.63;;;17.60;65.80;;;;;;5101885;28;20059;-38
2021/03/29 08:40:16;;;;;;;0.68;0.68;;;17.60;65.80;;;;;;5104697;28;20049;-39
2021/03/29 08:42:47;;;;;;;0.70;0.70;;;17.60;65.80;;;;;;5106470;28;20028;-38
2021/03/29 08:45:15;;;;;;;1.75;0.70;;;17.60;65.90;;;;;;5132723;27;20111;-38
2021/03/29 08:47:42;;;;;;;1.20;1.00;;;17.50;65.90;;;;;;5147339;27;20037;-39
2021/03/29 08:50:12;;;;;;;;;;;17.50;65.80;;;;;;5146683;27;20034;-38
2021/03/29 08:52:42;;;;;;;0.60;0.60;;;17.50;65.80;;;;;;5140037;27;19937;-38
2021/03/29 08:55:09;;;;;;;0.60;0.60;;;17.50;65.80;;;;;;5126637;28;20031;-38
2021/03/29 08:57:35;;;;;;;;;;;17.50;65.80;;;;;;5126808;28;20633;-38
2021/03/29 09:00:10;;;;;;;0.80;0.80;;;17.40;65.70;;;;;;5126678;28;19915;-38
2021/03/29 09:02:36;;;;;;;0.90;0.70;;;17.40;65.90;;;;;;5137530;27;20027;-38
2021/03/29 09:05:05;;;;;;;0.77;0.77;;;17.40;65.90;;;;;;5126453;28;20046;-39
2021/03/29 09:07:36;;;;;;;1.30;0.90;;;17.40;66.00;;;;;;5125884;28;20047;-39
2021/03/29 09:10:12;;;;;;;0.60;0.60;;;17.40;65.90;;;;;;5126333;28;20046;-39
2021/03/29 09:12:38;;;;;;;0.75;0.75;;;17.40;66.10;;;;;;5109442;28;20036;-39
2021/03/29 09:15:13;;;;;;;1.00;0.68;;;17.30;66.10;;;;;;5107768;28;20028;-39
2021/03/29 09:17:58;;;;;;;0.70;0.70;;;17.30;66.00;;;;;;5108674;28;20542;-39
2021/03/29 09:20:29;;;;;;;0.80;0.80;;;17.20;65.90;;;;;;5108440;28;20031;-39
2021/03/29 09:22:55;;;;;;;0.52;0.52;;;17.30;66.10;;;;;;5116240;28;20066;-39
2021/03/29 09:25:36;;;;;;;0.75;0.70;;;17.20;65.80;;;;;;5105631;28;20023;-39
2021/03/29 09:30:56;;;;;;;0.70;0.70;;;17.20;66.00;;;;;;5105684;28;20040;-39
2021/03/29 09:33:22;;;;;;;0.70;0.70;;;17.20;66.10;;;;;;5140864;27;20030;-39
2021/03/29 09:35:49;;;;;;;0.70;0.70;;;17.10;66.00;;;;;;5116661;28;20024;-39
2021/03/29 09:38:15;;;;;;;0.70;0.70;;;17.10;66.00;;;;;;5125716;28;20045;-38
2021/03/29 09:40:41;;;;;;;0.77;0.70;;;17.10;66.00;;;;;;5125765;28;20028;-39
2021/03/29 09:43:19;;;;;;;0.52;0.52;;;17.10;66.10;;;;;;5107113;28;20015;-39
2021/03/29 09:45:46;;;;;;;0.73;0.73;;;17.10;66.10;;;;;;5125665;28;20012;-39
2021/03/29 09:48:12;;;;;;;0.85;0.70;;;17.10;66.80;;;;;;5125637;28;20035;-38
2021/03/29 09:50:40;;;;;;;0.88;0.70;;;17.10;66.10;;;;;;5124978;28;20056;-39
2021/03/29 09:53:17;;;;;;;0.88;0.60;;;17.00;66.10;;;;;;5117568;27;20091;-40
2021/03/29 09:55:52;;;;;;;0.50;0.50;;;17.00;66.00;;;;;;5145956;27;20031;-39
2021/03/29 09:58:30;;;;;;;0.98;0.57;;;17.00;66.10;;;;;;5145858;27;20062;-39
2021/03/29 10:00:58;;;;;;;1.73;0.60;;;17.00;66.10;;;;;;5145270;27;20034;-39
2021/03/29 10:03:25;;;;;;;0.70;0.70;;;17.00;66.20;;;;;;5135589;27;20467;-39
2021/03/29 10:05:51;;;;;;;0.80;0.70;;;16.90;66.10;;;;;;5145812;27;20027;-39
2021/03/29 10:08:34;;;;;;;0.70;0.70;;;16.90;66.10;;;;;;5145504;27;20075;-39
2021/03/29 10:11:08;;;;;;;0.60;0.60;;;16.90;66.00;;;;;;5145627;27;20773;-39
2021/03/29 10:13:41;;;;;;;0.77;0.70;;;16.90;66.10;;;;;;5145352;27;20023;-39
2021/03/29 10:16:24;;;;;;;0.70;0.70;;;16.90;66.20;;;;;;5127520;27;20090;-39
2021/03/29 10:19:30;;;;;;;0.60;0.60;;;16.90;67.00;;;;;;5127184;27;20030;-39
2021/03/29 10:22:14;;;;;;;0.73;0.73;;;16.80;66.10;;;;;;5060275;28;20092;-39
2021/03/29 10:25:06;;;;;;;0.80;0.70;;;16.80;66.10;;;;;;5041299;28;20033;-39
2021/03/29 10:27:49;;;;;;;0.73;0.70;;;16.80;66.20;;;;;;5041023;28;20121;-39
2021/03/29 10:30:18;;;;;;;0.63;0.63;;;16.70;66.10;;;;;;5041257;28;20049;-39
2021/03/29 10:32:48;;;;;;;0.70;0.65;;;16.70;66.20;;;;;;5041332;28;20071;-39
2021/03/29 10:35:14;;;;;;;0.77;0.70;;;16.70;66.30;;;;;;5041060;28;20030;-39
2021/03/29 10:37:40;;;;;;;0.70;0.70;;;16.70;66.30;;;;;;5041221;28;20446;-39
2021/03/29 10:40:07;;;;;;;0.70;0.70;;;16.60;66.20;;;;;;5041042;28;20033;-39
2021/03/29 10:42:35;;;;;;;0.98;0.70;;;16.60;66.30;;;;;;5041054;28;20053;-39
2021/03/29 10:45:05;;;;;;;1.00;0.68;;;16.60;66.20;;;;;;5040850;28;20034;-39
2021/03/29 10:47:31;;;;;;;0.70;0.70;;;16.60;66.20;;;;;;5041006;28;20053;-38
2021/03/29 10:49:57;;;;;;;0.70;0.70;;;16.60;66.10;;;;;;5026476;28;20034;-39
2021/03/29 10:52:24;;;;;;;0.70;0.70;;;16.60;66.20;;;;;;5077267;27;20158;-39
2021/03/29 10:54:50;;;;;;;0.73;0.60;;;16.60;66.20;;;;;;5128037;27;20027;-39
2021/03/29 10:57:16;;;;;;;0.70;0.70;;;16.50;66.20;;;;;;5105778;28;20076;-39
2021/03/29 10:59:43;;;;;;;0.70;0.70;;;16.50;66.30;;;;;;5124357;28;20264;-39
2021/03/29 11:02:09;;;;;;;1.27;0.73;;;16.50;66.30;;;;;;5123263;28;20634;-39
2021/03/29 11:04:36;;;;;;;0.45;0.45;;;16.50;66.30;;;;;;5144331;27;20033;-39
2021/03/29 11:07:02;;;;;;;0.70;0.70;;;16.50;66.40;;;;;;5144216;27;20035;-39
2021/03/29 11:09:28;;;;;;;0.70;0.70;;;16.40;66.30;;;;;;5144525;27;20039;-39
2021/03/29 11:11:54;;;;;;;0.70;0.60;;;16.40;66.30;;;;;;5144418;27;20039;-39
2021/03/29 11:14:21;;;;;;;1.00;0.70;;;16.40;66.50;;;;;;5144242;27;20419;-38
2021/03/29 11:16:53;;;;;;;0.70;0.63;;;16.30;66.40;;;;;;5144447;27;20047;-39
2021/03/29 11:19:19;;;;;;;1.02;0.80;;;16.30;66.50;;;;;;5126235;27;20574;-39
2021/03/29 11:21:46;;;;;;;0.60;0.60;;;16.30;66.60;;;;;;5144309;27;20047;-38
2021/03/29 11:24:12;;;;;;;1.13;0.90;;;16.30;66.60;;;;;;5125943;27;20023;-39
2021/03/29 11:26:39;;;;;;;0.93;0.80;;;16.30;66.50;;;;;;5144060;27;20023;-39
2021/03/29 11:29:05;;;;;;;0.70;0.50;;;16.30;66.50;;;;;;5144330;27;20027;-38
2021/03/29 11:31:31;;;;;;;0.80;0.75;;;16.20;66.50;;;;;;5123705;27;20032;-39
2021/03/29 11:33:58;;;;;;;1.27;0.90;;;16.20;66.50;;;;;;5125363;27;20020;-39
2021/03/29 11:36:24;;;;;;;0.80;0.80;;;16.20;66.60;;;;;;5123434;28;20100;-39
2021/03/29 11:38:50;;;;;;;0.85;0.70;;;16.20;66.60;;;;;;5123314;28;20129;-39
2021/03/29 11:41:19;;;;;;;1.13;0.80;;;16.10;66.50;;;;;;5123588;28;20479;-39
2021/03/29 11:43:46;;;;;;;0.77;0.77;;;16.10;66.50;;;;;;5123300;28;20107;-39
2021/03/29 11:46:13;;;;;;;0.68;0.60;;;16.10;66.60;;;;;;5123035;28;20034;-39
2021/03/29 11:48:39;;;;;;;1.23;0.90;;;16.10;66.50;;;;;;5123333;28;20036;-39
2021/03/29 11:51:06;;;;;;;0.75;0.75;;;16.10;66.60;;;;;;5123148;28;20027;-39
2021/03/29 11:53:32;;;;;;;0.70;0.70;;;16.10;66.60;;;;;;5137786;27;20027;-39
2021/03/29 11:55:59;;;;;;;1.67;1.50;;;16.00;66.50;;;;;;5143414;27;20547;-39
2021/03/29 11:58:25;;;;;;;1.05;0.60;;;16.00;66.60;;;;;;5143664;27;20106;-39
2021/03/29 12:00:58;;;;;;;0.53;0.43;;;16.00;66.60;;;;;;5143765;27;20470;-39
2021/03/29 12:06:06;;;;;;;1.10;0.70;;;15.90;66.70;;;;;;5126202;27;20079;-38
2021/03/29 12:13:43;;;;;;;0.95;0.93;;;15.90;66.70;;;;;;5130511;27;20031;-39
2021/03/29 12:16:10;;;;;;;0.68;0.65;;;15.90;66.70;;;;;;5131724;27;20023;-39
2021/03/29 12:21:03;;;;;;;0.80;0.80;;;15.80;66.70;;;;;;5150595;27;20019;-39
2021/03/29 12:23:29;;;;;;;1.42;0.80;;;15.80;66.70;;;;;;5131964;27;20027;-39
2021/03/29 12:25:56;;;;;;;1.60;0.77;;;15.80;66.90;;;;;;5101145;28;20038;-38
2021/03/29 12:28:23;;;;;;;0.90;0.75;;;15.70;66.80;;;;;;5111310;28;20023;-39
2021/03/29 12:30:49;;;;;;;0.95;0.85;;;15.70;66.70;;;;;;5129598;28;20024;-43
2021/03/29 12:33:15;;;;;;;0.73;0.73;;;15.70;66.80;;;;;;5138867;27;20113;-38
2021/03/29 12:35:42;;;;;;;1.55;0.80;;;15.70;66.90;;;;;;5131721;27;20023;-39
2021/03/29 12:38:08;;;;;;;1.35;0.90;;;15.70;66.80;;;;;;5150181;27;20072;-42
2021/03/29 12:40:35;;;;;;;0.73;0.73;;;15.70;66.80;;;;;;5114856;27;20027;-38
2021/03/29 12:45:29;;;;;;;0.93;0.65;;;15.70;66.70;;;;;;5150314;27;20027;-39
2021/03/29 12:48:00;;;;;;;0.80;0.80;;;15.70;66.60;;;;;;5150223;27;20045;-38
2021/03/29 12:50:28;;;;;;;0.70;0.70;;;15.70;66.80;;;;;;5150306;27;20015;-38
2021/03/29 12:52:54;;;;;;;1.33;0.80;;;15.70;66.80;;;;;;5158986;27;20024;-38
2021/03/29 12:55:21;;;;;;;0.98;0.80;;;15.70;66.70;;;;;;5129540;28;20028;-39
2021/03/29 12:57:48;;;;;;;;;;;15.70;66.70;;;;;;5134667;27;20027;-38
2021/03/29 13:00:20;;;;;;;0.70;0.65;;;15.60;66.70;;;;;;5149920;27;19939;-39
2021/03/29 13:02:46;;;;;;;1.00;0.73;;;15.70;66.70;;;;;;5138862;27;20019;-39
2021/03/29 13:08:06;;;;;;;0.85;0.80;;;15.60;66.60;;;;;;5105553;27;20076;-38
2021/03/29 13:10:45;;;;;;;0.80;0.80;;;15.60;66.70;;;;;;5115218;27;20118;-39
2021/03/29 13:13:11;;;;;;;0.90;0.80;;;15.60;66.70;;;;;;5128657;27;20148;-38
2021/03/29 13:15:38;;;;;;;1.17;0.90;;;15.60;66.70;;;;;;5129337;28;20019;-37
2021/03/29 13:18:04;;;;;;;1.52;0.80;;;15.60;66.70;;;;;;5129313;28;20035;-38
2021/03/29 13:20:30;;;;;;;1.65;1.00;;;15.60;66.70;;;;;;5129221;28;20034;-38
2021/03/29 13:22:56;;;;;;;0.65;0.60;;;15.60;66.60;;;;;;5129143;28;20031;-38
2021/03/29 13:25:27;;;;;;;1.23;0.88;;;15.60;66.60;;;;;;5133853;27;20672;-38
2021/03/29 13:27:54;;;;;;;0.80;0.77;;;15.60;66.60;;;;;;5146387;27;20060;-38
2021/03/29 13:30:21;;;;;;;0.82;0.70;;;15.60;66.80;;;;;;5146560;27;20769;-38
2021/03/29 13:32:51;;;;;;;0.93;0.63;;;15.60;66.90;;;;;;5117069;27;20039;-38